createdAt,value
2023-04-11T00:01:43.557Z,16.00
2023-04-11T00:04:15.225Z,16.00
2023-04-11T00:06:48.491Z,15.90
2023-04-11T00:09:33.227Z,15.90
2023-04-11T00:12:06.856Z,15.90
2023-04-11T00:14:52.428Z,15.80
2023-04-11T00:17:29.131Z,15.80
2023-04-11T00:20:03.186Z,15.80
2023-04-11T00:22:36.739Z,15.80
2023-04-11T00:25:16.086Z,15.80
2023-04-11T00:27:50.683Z,15.70
2023-04-11T00:30:28.790Z,15.70
2023-04-11T00:32:59.297Z,15.70
2023-04-11T00:35:30.357Z,15.60
2023-04-11T00:38:14.214Z,15.60
2023-04-11T00:40:42.066Z,15.60
2023-04-11T00:43:21.093Z,15.50
2023-04-11T00:45:53.516Z,15.50
2023-04-11T00:48:31.873Z,15.50
2023-04-11T00:51:07.840Z,15.50
2023-04-11T00:53:44.602Z,15.50
2023-04-11T00:56:15.060Z,15.50
2023-04-11T00:58:55.407Z,15.50
2023-04-11T01:01:28.119Z,15.50
2023-04-11T01:04:03.831Z,15.50
2023-04-11T01:06:40.920Z,15.50
2023-04-11T01:09:20.019Z,15.40
2023-04-11T01:11:50.360Z,15.40
2023-04-11T01:14:20.993Z,15.40
2023-04-11T01:16:52.077Z,15.30
2023-04-11T01:19:27.705Z,15.30
2023-04-11T01:22:04.667Z,15.30
2023-04-11T01:24:40.320Z,15.30
2023-04-11T01:27:12.899Z,15.10
2023-04-11T01:29:49.053Z,14.70
2023-04-11T01:32:20.922Z,14.40
2023-04-11T01:34:57.791Z,14.10
2023-04-11T01:37:29.033Z,13.70
2023-04-11T01:39:56.807Z,13.50
2023-04-11T01:42:32.145Z,13.20
2023-04-11T01:45:18.641Z,13.10
2023-04-11T01:48:08.533Z,13.00
2023-04-11T01:50:55.134Z,12.90
2023-04-11T01:53:29.044Z,12.80
2023-04-11T01:56:10.942Z,12.70
2023-04-11T01:58:43.637Z,12.60
2023-04-11T02:01:23.099Z,12.50
2023-04-11T02:03:59.393Z,12.50
2023-04-11T02:06:27.890Z,12.50
2023-04-11T02:09:05.969Z,12.40
2023-04-11T02:11:41.116Z,12.40
2023-04-11T02:14:15.045Z,12.40
2023-04-11T02:17:04.067Z,12.40
2023-04-11T02:19:31.492Z,12.40
2023-04-11T02:22:03.479Z,12.30
2023-04-11T02:24:58.022Z,12.30
2023-04-11T02:27:31.735Z,12.30
2023-04-11T02:30:07.995Z,12.30
2023-04-11T02:32:39.793Z,12.30
2023-04-11T02:35:15.394Z,12.30
2023-04-11T02:37:43.646Z,12.30
2023-04-11T02:40:16.576Z,12.30
2023-04-11T02:42:49.856Z,12.30
2023-04-11T02:45:20.916Z,12.30
2023-04-11T02:48:06.171Z,12.30
2023-04-11T02:50:45.618Z,12.40
2023-04-11T02:53:26.582Z,12.40
2023-04-11T02:55:58.941Z,12.40
2023-04-11T02:58:42.229Z,12.40
2023-04-11T03:01:25.298Z,12.50
2023-04-11T03:04:00.489Z,12.50
2023-04-11T03:06:47.551Z,12.50
2023-04-11T03:09:21.381Z,12.50
2023-04-11T03:11:51.585Z,12.50
2023-04-11T03:14:19.059Z,12.60
2023-04-11T03:16:51.037Z,12.60
2023-04-11T03:19:30.412Z,12.60
2023-04-11T03:22:04.048Z,12.60
2023-04-11T03:24:36.742Z,12.60
2023-04-11T03:27:05.007Z,12.60
2023-04-11T03:29:39.947Z,12.60
2023-04-11T03:32:17.848Z,12.50
2023-04-11T03:34:50.933Z,12.60
2023-04-11T03:37:18.885Z,12.60
2023-04-11T03:39:59.859Z,12.60
2023-04-11T03:42:36.412Z,12.50
2023-04-11T03:45:11.964Z,12.60
2023-04-11T03:47:46.430Z,12.50
2023-04-11T03:50:16.022Z,12.50
2023-04-11T03:52:50.109Z,12.50
2023-04-11T03:55:22.891Z,12.60
2023-04-11T03:58:01.641Z,12.60
2023-04-11T04:00:30.298Z,12.60
2023-04-11T04:03:10.230Z,12.60
2023-04-11T04:05:52.147Z,12.60
2023-04-11T04:08:22.360Z,12.70
2023-04-11T04:10:50.446Z,12.70
2023-04-11T04:13:24.447Z,12.70
2023-04-11T04:16:03.537Z,12.80
2023-04-11T04:18:37.997Z,12.70
2023-04-11T04:21:15.191Z,12.80
2023-04-11T04:23:51.648Z,12.80
2023-04-11T04:26:30.270Z,12.80
2023-04-11T04:29:24.041Z,12.80
2023-04-11T04:31:57.296Z,12.80
2023-04-11T04:34:57.155Z,12.80
2023-04-11T04:37:40.957Z,12.80
2023-04-11T04:40:20.837Z,12.80
2023-04-11T04:43:02.436Z,12.80
2023-04-11T04:45:57.003Z,12.80
2023-04-11T04:48:32.469Z,12.80
2023-04-11T04:51:07.401Z,12.80
2023-04-11T04:53:46.231Z,12.80
2023-04-11T04:56:16.868Z,12.80
2023-04-11T04:58:49.025Z,12.80
2023-04-11T05:01:34.340Z,12.90
2023-04-11T05:04:11.580Z,12.80
2023-04-11T05:06:57.179Z,12.80
2023-04-11T05:09:29.265Z,12.70
2023-04-11T05:12:07.345Z,12.70
2023-04-11T05:14:38.680Z,12.60
2023-04-11T05:17:09.156Z,12.60
2023-04-11T05:19:36.621Z,12.50
2023-04-11T05:22:07.971Z,12.50
2023-04-11T05:24:39.272Z,12.40
2023-04-11T05:27:11.480Z,12.30
2023-04-11T05:29:46.250Z,12.30
2023-04-11T05:32:30.193Z,12.30
2023-04-11T05:35:06.988Z,12.30
2023-04-11T05:37:46.320Z,12.30
2023-04-11T05:40:16.336Z,12.20
2023-04-11T05:42:44.105Z,12.20
2023-04-11T05:45:16.635Z,12.20
2023-04-11T05:47:46.805Z,12.20
2023-04-11T05:50:19.718Z,12.10
2023-04-11T05:52:54.683Z,12.10
2023-04-11T05:55:28.081Z,12.00
2023-04-11T05:57:56.199Z,11.90
2023-04-11T06:00:24.849Z,11.90
2023-04-11T06:02:59.295Z,11.80
2023-04-11T06:05:32.345Z,11.80
2023-04-11T06:08:09.498Z,11.80
2023-04-11T06:10:53.735Z,11.70
2023-04-11T06:13:37.665Z,11.70
2023-04-11T06:16:06.741Z,11.70
2023-04-11T06:18:34.408Z,11.70
2023-04-11T06:21:13.260Z,11.70
2023-04-11T06:23:45.455Z,11.70
2023-04-11T06:26:21.554Z,11.70
2023-04-11T06:28:53.192Z,11.70
2023-04-11T06:31:20.464Z,11.70
2023-04-11T06:33:47.734Z,11.70
2023-04-11T06:36:17.524Z,11.80
2023-04-11T06:38:51.522Z,11.90
2023-04-11T06:41:27.504Z,11.90
2023-04-11T06:44:04.464Z,11.90
2023-04-11T06:46:36.744Z,11.80
2023-04-11T06:49:11.110Z,11.80
2023-04-11T06:51:42.030Z,11.80
2023-04-11T06:54:22.989Z,11.80
2023-04-11T06:56:52.806Z,11.80
2023-04-11T06:59:37.761Z,11.70
2023-04-11T07:02:12.790Z,11.70
2023-04-11T07:04:48.161Z,11.70
2023-04-11T07:07:20.929Z,11.70
2023-04-11T07:09:50.501Z,11.80
2023-04-11T07:12:42.765Z,11.90
2023-04-11T07:15:13.243Z,11.90
2023-04-11T07:17:42.977Z,12.00
2023-04-11T07:20:17.840Z,12.00
2023-04-11T07:22:54.449Z,12.00
2023-04-11T07:25:36.602Z,12.00
2023-04-11T07:28:19.698Z,12.10
2023-04-11T07:30:53.291Z,12.10
2023-04-11T07:33:23.353Z,12.10
2023-04-11T07:35:54.474Z,12.20
2023-04-11T07:38:33.583Z,12.20
2023-04-11T07:41:08.746Z,12.10
2023-04-11T07:43:44.021Z,12.20
2023-04-11T07:46:15.316Z,12.20
2023-04-11T07:48:45.873Z,12.20
2023-04-11T07:51:25.725Z,12.40
2023-04-11T07:53:58.904Z,12.50
2023-04-11T07:56:37.640Z,12.70
2023-04-11T07:59:19.777Z,12.90
2023-04-11T08:01:49.234Z,13.00
2023-04-11T08:04:19.640Z,13.00
2023-04-11T08:06:51.485Z,13.10
2023-04-11T08:09:23.110Z,13.10
2023-04-11T08:11:55.297Z,13.10
2023-04-11T08:14:28.773Z,13.20
2023-04-11T08:16:56.391Z,13.20
2023-04-11T08:19:28.589Z,13.30
2023-04-11T08:22:05.247Z,13.30
2023-04-11T08:24:41.360Z,13.40
2023-04-11T08:27:16.033Z,13.50
2023-04-11T08:29:57.676Z,13.50
2023-04-11T08:32:28.290Z,13.50
2023-04-11T08:34:58.371Z,13.60
2023-04-11T08:37:31.211Z,13.70
2023-04-11T08:40:03.328Z,13.70
2023-04-11T08:42:34.612Z,13.80
2023-04-11T08:45:15.555Z,13.90
2023-04-11T08:47:54.092Z,14.00
2023-04-11T08:50:24.414Z,14.00
2023-04-11T08:52:55.744Z,14.00
2023-04-11T08:55:24.364Z,14.10
2023-04-11T08:58:03.194Z,14.20
2023-04-11T09:00:32.604Z,14.20
2023-04-11T09:03:02.504Z,14.10
2023-04-11T09:05:40.255Z,14.10
2023-04-11T09:08:25.671Z,14.00
2023-04-11T09:11:12.236Z,13.90
2023-04-11T09:13:55.709Z,13.90
2023-04-11T09:16:29.260Z,13.90
2023-04-11T09:18:59.805Z,13.90
2023-04-11T09:21:51.218Z,13.90
2023-04-11T09:24:36.769Z,14.00
2023-04-11T09:27:27.304Z,14.20
2023-04-11T09:30:00.871Z,14.30
2023-04-11T09:32:37.820Z,14.30
2023-04-11T09:35:34.206Z,14.30
2023-04-11T09:38:10.270Z,14.40
2023-04-11T09:40:57.264Z,14.50
2023-04-11T09:43:43.326Z,14.90
2023-04-11T09:46:18.715Z,15.20
2023-04-11T09:48:54.829Z,15.30
2023-04-11T09:51:36.559Z,15.50
2023-04-11T09:54:20.850Z,15.70
2023-04-11T09:56:59.860Z,16.40
2023-04-11T09:59:28.812Z,16.90
2023-04-11T10:02:01.093Z,17.10
2023-04-11T10:04:43.117Z,17.10
2023-04-11T10:07:19.996Z,17.20
2023-04-11T10:09:52.963Z,17.20
2023-04-11T10:12:35.873Z,16.90
2023-04-11T10:15:10.933Z,16.50
2023-04-11T10:17:41.244Z,16.30
2023-04-11T10:20:53.359Z,16.00
2023-04-11T10:23:31.034Z,15.90
2023-04-11T10:26:03.189Z,15.80
2023-04-11T10:28:43.885Z,15.70
2023-04-11T10:31:17.550Z,15.60
2023-04-11T10:34:25.905Z,15.40
2023-04-11T10:37:08.820Z,15.30
2023-04-11T10:39:51.613Z,15.20
2023-04-11T10:42:57.587Z,15.00
2023-04-11T10:45:51.266Z,14.80
2023-04-11T10:48:34.989Z,14.70
2023-04-11T10:51:48.734Z,14.70
2023-04-11T10:54:38.759Z,14.70
2023-04-11T10:57:23.675Z,14.70
2023-04-11T10:59:58.124Z,14.70
2023-04-11T11:02:49.137Z,14.80
2023-04-11T11:05:23.241Z,14.80
2023-04-11T11:07:53.063Z,14.90
2023-04-11T11:11:08.100Z,15.00
2023-04-11T11:13:52.708Z,15.10
2023-04-11T11:16:30.448Z,15.10
2023-04-11T11:19:14.124Z,15.30
2023-04-11T11:21:48.851Z,15.30
2023-04-11T11:24:36.373Z,15.30
2023-04-11T11:27:07.938Z,15.20
2023-04-11T11:29:43.889Z,15.30
2023-04-11T11:32:30.363Z,15.40
2023-04-11T11:35:04.092Z,15.50
2023-04-11T11:37:39.229Z,15.70
2023-04-11T11:40:17.562Z,15.80
2023-04-11T11:43:03.314Z,16.10
2023-04-11T11:45:35.704Z,16.20
2023-04-11T11:48:19.846Z,16.40
2023-04-11T11:50:56.340Z,16.70
2023-04-11T11:53:27.063Z,16.80
2023-04-11T11:55:59.694Z,16.90
2023-04-11T11:58:50.185Z,17.00
2023-04-11T12:01:25.368Z,17.20
2023-04-11T12:04:02.751Z,17.30
2023-04-11T12:06:34.936Z,17.30
2023-04-11T12:09:10.775Z,17.30
2023-04-11T12:11:58.311Z,17.30
2023-04-11T12:14:35.299Z,17.50
2023-04-11T12:17:02.525Z,18.10
2023-04-11T12:19:38.693Z,18.90
2023-04-11T12:22:16.094Z,19.40
2023-04-11T12:24:52.857Z,19.90
2023-04-11T12:27:29.103Z,20.20
2023-04-11T12:30:02.508Z,20.40
2023-04-11T12:32:44.442Z,20.50
2023-04-11T12:35:17.699Z,20.30
2023-04-11T12:38:10.945Z,20.00
2023-04-11T12:40:46.387Z,20.10
2023-04-11T12:43:14.084Z,20.10
2023-04-11T12:45:41.433Z,20.10
2023-04-11T12:48:11.343Z,19.80
2023-04-11T12:50:43.812Z,19.60
2023-04-11T12:53:31.659Z,19.10
2023-04-11T12:56:06.568Z,18.60
2023-04-11T12:58:35.034Z,18.50
2023-04-11T13:01:06.315Z,18.60
2023-04-11T13:03:42.151Z,18.30
2023-04-11T13:06:12.568Z,18.00
2023-04-11T13:08:45.721Z,17.80
2023-04-11T13:11:15.906Z,17.70
2023-04-11T13:13:54.074Z,17.60
2023-04-11T13:16:29.422Z,17.50
2023-04-11T13:19:11.346Z,17.60
2023-04-11T13:21:49.379Z,17.60
2023-04-11T13:24:20.056Z,17.60
2023-04-11T13:26:52.989Z,17.40
2023-04-11T13:29:20.741Z,17.30
2023-04-11T13:31:52.988Z,17.20
2023-04-11T13:34:23.956Z,17.30
2023-04-11T13:36:57.108Z,17.30
2023-04-11T13:39:29.219Z,17.40
2023-04-11T13:42:05.582Z,17.40
2023-04-11T13:44:38.458Z,17.60
2023-04-11T13:47:08.994Z,18.10
2023-04-11T13:49:42.203Z,18.50
2023-04-11T13:52:09.737Z,18.70
2023-04-11T13:54:40.021Z,19.20
2023-04-11T13:57:20.624Z,19.90
2023-04-11T14:00:00.949Z,20.20
2023-04-11T14:02:32.884Z,20.90
2023-04-11T14:05:04.889Z,21.50
2023-04-11T14:07:43.299Z,21.60
2023-04-11T14:10:15.054Z,21.20
2023-04-11T14:12:45.280Z,20.90
2023-04-11T14:15:21.891Z,20.90
2023-04-11T14:17:59.110Z,21.20
2023-04-11T14:20:35.304Z,21.30
2023-04-11T14:23:10.572Z,21.20
2023-04-11T14:25:43.838Z,21.00
2023-04-11T14:28:14.277Z,20.60
2023-04-11T14:30:45.871Z,20.30
2023-04-11T14:33:13.463Z,20.20
2023-04-11T14:35:47.087Z,20.40
2023-04-11T14:38:21.886Z,20.70
2023-04-11T14:40:55.417Z,21.10
2023-04-11T14:43:34.634Z,21.50
2023-04-11T14:46:20.974Z,21.50
2023-04-11T14:48:54.739Z,21.10
2023-04-11T14:51:32.760Z,20.50
2023-04-11T14:54:11.893Z,20.10
2023-04-11T14:56:43.022Z,19.70
2023-04-11T14:59:36.191Z,19.40
2023-04-11T15:02:09.464Z,19.40
2023-04-11T15:04:36.880Z,19.20
2023-04-11T15:07:10.079Z,19.10
2023-04-11T15:09:46.595Z,18.90
2023-04-11T15:12:19.176Z,18.90
2023-04-11T15:14:46.189Z,18.90
2023-04-11T15:17:13.061Z,18.80
2023-04-11T15:19:39.924Z,18.70
2023-04-11T15:22:06.829Z,18.60
2023-04-11T15:24:33.668Z,18.50
2023-04-11T15:27:01.009Z,18.60
2023-04-11T15:29:27.927Z,18.60
2023-04-11T15:31:54.785Z,18.70
2023-04-11T15:34:23.326Z,19.00
2023-04-11T15:36:50.306Z,19.30
2023-04-11T15:39:17.254Z,19.50
2023-04-11T15:41:46.169Z,19.40
2023-04-11T15:44:14.137Z,19.40
2023-04-11T15:46:41.102Z,19.10
2023-04-11T15:49:08.066Z,18.90
2023-04-11T15:51:35.168Z,18.70
2023-04-11T15:54:02.283Z,18.40
2023-04-11T15:56:29.200Z,18.30
2023-04-11T15:58:56.053Z,18.10
2023-04-11T16:01:23.675Z,18.10
2023-04-11T16:03:52.500Z,18.00
2023-04-11T16:06:19.955Z,17.90
2023-04-11T16:08:46.953Z,17.80
2023-04-11T16:11:13.803Z,17.70
2023-04-11T16:13:40.840Z,17.60
2023-04-11T16:16:10.892Z,17.40
2023-04-11T16:18:37.818Z,17.30
2023-04-11T16:21:11.411Z,17.20
2023-04-11T16:23:39.196Z,17.10
2023-04-11T16:26:07.107Z,17.00
2023-04-11T16:28:37.036Z,16.90
2023-04-11T16:31:04.325Z,16.70
2023-04-11T16:33:31.233Z,16.60
2023-04-11T16:35:58.216Z,16.60
2023-04-11T16:38:25.389Z,16.60
2023-04-11T16:40:52.216Z,16.50
2023-04-11T16:43:19.134Z,16.40
2023-04-11T16:45:46.071Z,16.30
2023-04-11T16:48:13.063Z,16.30
2023-04-11T16:50:39.931Z,16.20
2023-04-11T16:53:06.922Z,16.10
2023-04-11T16:55:33.804Z,16.10
2023-04-11T16:58:00.927Z,16.00
2023-04-11T17:00:29.468Z,16.00
2023-04-11T17:02:56.890Z,15.80
2023-04-11T17:05:26.696Z,15.80
2023-04-11T17:07:53.550Z,15.70
2023-04-11T17:10:21.121Z,15.70
2023-04-11T17:12:51.150Z,15.60
2023-04-11T17:15:18.009Z,15.50
2023-04-11T17:17:45.268Z,15.50
2023-04-11T17:20:12.302Z,15.40
2023-04-11T17:22:41.691Z,15.30
2023-04-11T17:25:10.031Z,15.30
2023-04-11T17:27:37.286Z,15.20
2023-04-11T17:34:10.382Z,15.10
2023-04-11T17:36:42.612Z,15.00
2023-04-11T17:39:17.012Z,15.00
2023-04-11T17:41:47.181Z,14.90
2023-04-11T17:44:14.452Z,14.90
2023-04-11T17:46:41.637Z,14.80
2023-04-11T17:49:08.719Z,14.80
2023-04-11T17:51:38.814Z,14.70
2023-04-11T17:54:08.587Z,14.70
2023-04-11T17:56:35.824Z,14.70
2023-04-11T17:59:02.934Z,14.60
2023-04-11T18:01:32.804Z,14.60
2023-04-11T18:04:01.659Z,14.60
2023-04-11T18:06:29.609Z,14.50
2023-04-11T18:08:56.762Z,14.50
2023-04-11T18:11:23.847Z,14.50
2023-04-11T18:13:51.048Z,14.50
2023-04-11T18:16:18.445Z,14.40
2023-04-11T18:18:47.226Z,14.40
2023-04-11T18:21:16.068Z,14.40
2023-04-11T18:23:42.999Z,14.30
2023-04-11T18:26:09.890Z,14.30
2023-04-11T18:28:36.850Z,14.30
2023-04-11T18:31:04.857Z,14.30
2023-04-11T18:33:32.085Z,14.20
2023-04-11T18:35:59.210Z,14.30
2023-04-11T18:38:27.381Z,14.20
2023-04-11T18:40:55.739Z,14.20
2023-04-11T18:43:24.641Z,14.20
2023-04-11T18:45:51.614Z,14.20
2023-04-11T18:48:18.601Z,14.10
2023-04-11T18:50:48.558Z,14.10
2023-04-11T18:53:16.292Z,14.10
2023-04-11T18:55:43.232Z,14.10
2023-04-11T18:58:14.423Z,14.10
2023-04-11T19:00:43.000Z,14.10
2023-04-11T19:03:15.563Z,14.10
2023-04-11T19:05:43.926Z,14.00
2023-04-11T19:08:11.330Z,14.00
2023-04-11T19:10:38.303Z,14.00
2023-04-11T19:13:06.358Z,14.00
2023-04-11T19:15:33.256Z,14.00
2023-04-11T19:18:00.754Z,13.90
2023-04-11T19:20:28.250Z,13.90
2023-04-11T19:23:44.026Z,13.90
2023-04-11T19:26:11.003Z,13.90
2023-04-11T19:29:03.999Z,13.90
2023-04-11T19:32:07.139Z,13.80
2023-04-11T19:35:05.244Z,13.80
2023-04-11T19:42:07.063Z,13.70
2023-04-11T19:44:34.173Z,13.70
2023-04-11T19:47:01.166Z,13.70
2023-04-11T19:49:28.153Z,13.70
2023-04-11T19:51:55.050Z,13.70
2023-04-11T19:54:22.055Z,13.70
2023-04-11T19:56:52.533Z,13.70
2023-04-11T19:59:19.446Z,13.70
2023-04-11T20:01:46.462Z,13.70
2023-04-11T20:04:15.778Z,13.70
2023-04-11T20:06:44.150Z,13.70
2023-04-11T20:09:11.895Z,13.70
2023-04-11T20:11:39.605Z,13.70
2023-04-11T20:14:07.604Z,13.70
2023-04-11T20:16:34.708Z,13.70
2023-04-11T20:19:01.796Z,13.70
2023-04-11T20:21:28.825Z,13.70
2023-04-11T20:23:56.105Z,13.70
2023-04-11T20:26:23.422Z,13.70
2023-04-11T20:28:50.465Z,13.60
2023-04-11T20:31:17.486Z,13.60
2023-04-11T20:33:47.609Z,13.60
2023-04-11T20:36:15.661Z,13.50
2023-04-11T20:38:42.762Z,13.50
2023-04-11T20:41:10.442Z,13.40
2023-04-11T20:43:42.028Z,13.40
2023-04-11T20:46:09.000Z,13.30
2023-04-11T20:48:37.689Z,13.30
2023-04-11T20:51:04.753Z,13.30
2023-04-11T20:53:31.917Z,13.20
2023-04-11T20:56:01.434Z,13.10
2023-04-11T20:58:31.365Z,13.00
2023-04-11T21:00:59.290Z,12.90
2023-04-11T21:03:30.308Z,12.80
2023-04-11T21:05:57.626Z,12.70
2023-04-11T21:08:24.622Z,12.60
2023-04-11T21:10:51.527Z,12.40
2023-04-11T21:13:18.755Z,12.30
2023-04-11T21:15:45.742Z,12.20
2023-04-11T21:18:12.716Z,12.20
2023-04-11T21:20:40.479Z,12.10
2023-04-11T21:23:07.385Z,12.00
2023-04-11T21:25:36.294Z,12.00
2023-04-11T21:28:03.227Z,12.00
2023-04-11T21:30:30.683Z,11.90
2023-04-11T21:32:57.627Z,12.00
2023-04-11T21:35:24.576Z,12.00
2023-04-11T21:37:51.444Z,12.00
2023-04-11T21:40:18.465Z,12.00
2023-04-11T21:42:46.025Z,12.00
2023-04-11T21:45:12.966Z,11.90
2023-04-11T21:47:43.111Z,11.90
2023-04-11T21:50:10.754Z,11.90
2023-04-11T21:52:37.668Z,11.90
2023-04-11T21:55:07.191Z,11.70
2023-04-11T21:57:35.801Z,11.60
2023-04-11T22:00:04.334Z,11.50
2023-04-11T22:02:39.237Z,11.50
2023-04-11T22:05:09.189Z,11.40
2023-04-11T22:07:48.639Z,11.40
2023-04-11T22:10:22.197Z,11.30
2023-04-11T22:12:54.415Z,11.30
2023-04-11T22:15:21.509Z,11.30
2023-04-11T22:17:50.824Z,11.40
2023-04-11T22:20:18.501Z,11.40
2023-04-11T22:22:45.573Z,11.30
2023-04-11T22:25:12.568Z,11.30
2023-04-11T22:27:39.622Z,11.40
2023-04-11T22:30:07.775Z,11.40
2023-04-11T22:32:34.946Z,11.40
2023-04-11T22:35:01.860Z,11.40
2023-04-11T22:37:28.715Z,11.40
2023-04-11T22:39:55.758Z,11.40
2023-04-11T22:42:22.712Z,11.50
2023-04-11T22:44:49.550Z,11.50
2023-04-11T22:47:16.848Z,11.50
2023-04-11T22:49:45.176Z,11.50
2023-04-11T22:52:15.728Z,11.50
2023-04-11T22:54:43.227Z,11.50
2023-04-11T22:57:10.683Z,11.40
2023-04-11T22:59:37.648Z,11.30
2023-04-11T23:02:04.815Z,11.30
2023-04-11T23:04:32.216Z,11.20
2023-04-11T23:06:59.658Z,11.10
2023-04-11T23:09:28.638Z,11.10
2023-04-11T23:11:55.546Z,11.00
2023-04-11T23:14:22.634Z,11.00
2023-04-11T23:16:49.725Z,11.00
2023-04-11T23:19:18.906Z,11.00
2023-04-11T23:21:45.920Z,11.00
2023-04-11T23:24:12.810Z,11.00
2023-04-11T23:26:39.720Z,11.00
2023-04-11T23:29:07.399Z,11.10
2023-04-11T23:31:34.298Z,11.10
2023-04-11T23:34:01.870Z,11.10
2023-04-11T23:36:29.316Z,11.20
2023-04-11T23:38:56.832Z,11.20
2023-04-11T23:41:24.112Z,11.30
2023-04-11T23:43:51.475Z,11.30
2023-04-11T23:46:18.447Z,11.30
2023-04-11T23:48:47.030Z,11.30
2023-04-11T23:51:14.364Z,11.40
2023-04-11T23:53:42.697Z,11.40
2023-04-11T23:56:11.665Z,11.40
2023-04-11T23:58:38.635Z,11.50
